createdAt,value
2019-04-06T00:00:08.898Z,70.10
2019-04-06T00:02:39.952Z,70.10
2019-04-06T00:05:09.459Z,70.20
2019-04-06T00:07:39.304Z,70.30
2019-04-06T00:10:08.725Z,70.50
2019-04-06T00:12:37.958Z,70.50
2019-04-06T00:15:08.076Z,70.70
2019-04-06T00:17:37.770Z,70.80
2019-04-06T00:20:09.742Z,70.80
2019-04-06T00:22:39.004Z,70.80
2019-04-06T00:25:08.450Z,70.90
2019-04-06T00:27:37.681Z,71.10
2019-04-06T00:30:08.247Z,71.00
2019-04-06T00:32:44.103Z,71.20
2019-04-06T00:35:13.647Z,70.70
2019-04-06T00:37:42.914Z,70.40
2019-04-06T00:40:12.345Z,70.70
2019-04-06T00:42:41.899Z,71.00
2019-04-06T00:45:11.412Z,71.10
2019-04-06T00:47:41.046Z,71.10
2019-04-06T00:50:10.344Z,71.40
2019-04-06T00:52:39.930Z,71.40
2019-04-06T00:55:09.622Z,71.50
2019-04-06T00:57:39.247Z,71.40
2019-04-06T01:00:08.891Z,71.40
2019-04-06T01:02:38.579Z,71.60
2019-04-06T01:05:07.911Z,71.70
2019-04-06T01:07:37.237Z,71.70
2019-04-06T01:10:07.468Z,71.90
2019-04-06T01:12:37.147Z,72.00
2019-04-06T01:15:07.039Z,71.90
2019-04-06T01:17:36.268Z,72.00
2019-04-06T01:20:06.609Z,72.10
2019-04-06T01:22:35.863Z,72.20
2019-04-06T01:25:07.547Z,72.20
2019-04-06T01:27:37.124Z,72.40
2019-04-06T01:30:07.816Z,72.50
2019-04-06T01:32:37.229Z,73.30
2019-04-06T01:35:06.681Z,72.20
2019-04-06T01:37:35.999Z,72.00
2019-04-06T01:40:06.793Z,72.40
2019-04-06T01:42:36.143Z,72.70
2019-04-06T01:45:07.225Z,72.90
2019-04-06T01:47:36.474Z,72.90
2019-04-06T01:50:06.273Z,73.10
2019-04-06T01:52:35.897Z,73.20
2019-04-06T01:55:06.134Z,73.20
2019-04-06T01:57:35.440Z,73.30
2019-04-06T02:00:08.751Z,73.30
2019-04-06T02:02:39.779Z,73.40
2019-04-06T02:05:09.367Z,73.40
2019-04-06T02:07:39.226Z,73.60
2019-04-06T02:10:08.574Z,73.60
2019-04-06T02:12:37.841Z,73.60
2019-04-06T02:15:07.919Z,73.70
2019-04-06T02:17:37.448Z,73.90
2019-04-06T02:20:07.166Z,73.90
2019-04-06T02:22:37.211Z,74.00
2019-04-06T02:25:09.471Z,74.00
2019-04-06T02:27:39.368Z,74.00
2019-04-06T02:30:16.105Z,74.20
2019-04-06T02:32:47.077Z,74.20
2019-04-06T02:35:21.360Z,74.20
2019-04-06T02:37:52.519Z,74.20
2019-04-06T02:40:26.323Z,74.20
2019-04-06T02:43:00.215Z,74.40
2019-04-06T02:45:29.510Z,74.40
2019-04-06T02:47:58.758Z,74.50
2019-04-06T02:50:28.041Z,74.60
2019-04-06T02:52:57.234Z,74.60
2019-04-06T02:55:26.456Z,74.70
2019-04-06T02:57:55.762Z,74.70
2019-04-06T03:00:24.968Z,74.80
2019-04-06T03:02:54.210Z,74.80
2019-04-06T03:05:23.464Z,75.00
2019-04-06T03:07:52.653Z,75.00
2019-04-06T03:10:21.859Z,75.10
2019-04-06T03:12:51.114Z,75.20
2019-04-06T03:15:20.342Z,75.30
2019-04-06T03:17:49.805Z,75.30
2019-04-06T03:20:19.208Z,75.20
2019-04-06T03:22:48.616Z,75.30
2019-04-06T03:25:17.863Z,75.40
2019-04-06T03:27:47.057Z,75.40
2019-04-06T03:30:16.590Z,75.50
2019-04-06T03:32:45.830Z,75.50
2019-04-06T03:35:15.377Z,76.30
2019-04-06T03:37:44.706Z,75.60
2019-04-06T03:40:14.131Z,75.60
2019-04-06T03:42:43.521Z,75.70
2019-04-06T03:45:12.803Z,75.80
2019-04-06T03:47:42.078Z,75.90
2019-04-06T03:50:11.295Z,75.90
2019-04-06T03:52:40.506Z,75.90
2019-04-06T03:55:09.757Z,75.90
2019-04-06T03:57:38.995Z,76.00
2019-04-06T04:00:08.305Z,76.10
2019-04-06T04:02:37.763Z,76.10
2019-04-06T04:05:07.363Z,76.10
2019-04-06T04:07:36.760Z,76.10
2019-04-06T04:10:09.390Z,76.20
2019-04-06T04:12:38.602Z,76.30
2019-04-06T04:15:08.105Z,76.40
2019-04-06T04:17:37.435Z,76.50
2019-04-06T04:20:07.690Z,76.40
2019-04-06T04:22:36.913Z,76.50
2019-04-06T04:25:06.732Z,76.60
2019-04-06T04:27:36.022Z,76.70
2019-04-06T04:30:07.765Z,76.60
2019-04-06T04:32:37.022Z,76.70
2019-04-06T04:35:06.642Z,76.80
2019-04-06T04:37:35.831Z,76.90
2019-04-06T04:40:05.209Z,76.80
2019-04-06T04:42:34.415Z,76.90
2019-04-06T04:45:03.748Z,76.90
2019-04-06T04:47:32.993Z,76.90
2019-04-06T04:50:02.156Z,76.90
2019-04-06T04:52:31.379Z,76.90
2019-04-06T04:55:00.567Z,76.90
2019-04-06T04:57:39.625Z,77.00
2019-04-06T05:00:00.738Z,77.00
2019-04-06T05:02:30.002Z,77.10
2019-04-06T05:04:59.261Z,77.10
2019-04-06T05:07:28.460Z,77.20
2019-04-06T05:09:57.696Z,77.20
2019-04-06T05:12:26.929Z,77.20
2019-04-06T05:15:01.401Z,77.30
2019-04-06T05:17:30.877Z,77.30
2019-04-06T05:20:00.173Z,77.30
2019-04-06T05:22:29.331Z,77.40
2019-04-06T05:24:58.782Z,77.50
2019-04-06T05:27:28.087Z,77.60
2019-04-06T05:29:57.314Z,77.60
2019-04-06T05:32:26.525Z,77.70
2019-04-06T05:34:57.999Z,77.70
2019-04-06T05:37:26.637Z,77.80
2019-04-06T05:39:55.868Z,77.80
2019-04-06T05:42:25.199Z,77.80
2019-04-06T05:44:54.570Z,77.80
2019-04-06T05:47:23.927Z,77.90
2019-04-06T05:49:53.169Z,77.90
2019-04-06T05:52:22.626Z,78.00
2019-04-06T05:54:51.904Z,78.00
2019-04-06T05:57:21.096Z,78.00
2019-04-06T05:59:50.335Z,78.10
2019-04-06T06:02:19.564Z,78.10
2019-04-06T06:04:48.821Z,78.10
2019-04-06T06:07:18.095Z,78.10
2019-04-06T06:09:47.739Z,78.20
2019-04-06T06:12:17.014Z,78.20
2019-04-06T06:14:46.271Z,78.20
2019-04-06T06:17:15.495Z,78.20
2019-04-06T06:19:44.693Z,78.30
2019-04-06T06:22:14.171Z,78.40
2019-04-06T06:24:43.400Z,78.50
2019-04-06T06:27:12.582Z,78.50
2019-04-06T06:29:41.873Z,78.40
2019-04-06T06:32:11.073Z,78.50
2019-04-06T06:34:40.391Z,78.50
2019-04-06T06:37:09.709Z,78.60
2019-04-06T06:39:38.915Z,78.60
2019-04-06T06:42:08.340Z,78.60
2019-04-06T06:44:37.736Z,78.60
2019-04-06T06:47:06.949Z,78.60
2019-04-06T06:49:36.687Z,78.60
2019-04-06T06:52:06.464Z,78.70
2019-04-06T06:54:36.022Z,78.70
2019-04-06T06:57:05.499Z,78.60
2019-04-06T06:59:34.985Z,78.60
2019-04-06T07:02:04.853Z,78.60
2019-04-06T07:04:34.757Z,78.70
2019-04-06T07:07:04.070Z,78.50
2019-04-06T07:09:33.320Z,78.50
2019-04-06T07:12:02.656Z,78.50
2019-04-06T07:14:31.980Z,78.60
2019-04-06T07:17:02.244Z,78.50
2019-04-06T07:19:31.473Z,78.50
2019-04-06T07:22:00.913Z,78.40
2019-04-06T07:24:30.445Z,78.30
2019-04-06T07:26:59.963Z,78.40
2019-04-06T07:29:29.185Z,78.40
2019-04-06T07:31:58.558Z,78.30
2019-04-06T07:34:27.881Z,78.40
2019-04-06T07:36:57.155Z,78.10
2019-04-06T07:39:26.356Z,78.20
2019-04-06T07:41:55.600Z,78.10
2019-04-06T07:44:24.877Z,78.00
2019-04-06T07:46:54.127Z,78.10
2019-04-06T07:49:23.411Z,78.10
2019-04-06T07:51:52.644Z,77.90
2019-04-06T07:54:21.846Z,77.80
2019-04-06T07:56:51.175Z,77.60
2019-04-06T07:59:20.324Z,77.50
2019-04-06T08:01:49.792Z,77.50
2019-04-06T08:04:19.300Z,77.50
2019-04-06T08:06:48.473Z,77.50
2019-04-06T08:09:17.711Z,77.60
2019-04-06T08:11:46.918Z,77.50
2019-04-06T08:14:16.141Z,77.20
2019-04-06T08:16:45.405Z,77.20
2019-04-06T08:19:14.658Z,77.10
2019-04-06T08:21:43.828Z,77.00
2019-04-06T08:24:13.127Z,76.80
2019-04-06T08:26:42.421Z,76.60
2019-04-06T08:29:11.636Z,76.50
2019-04-06T08:31:40.862Z,76.40
2019-04-06T08:34:10.026Z,76.50
2019-04-06T08:36:39.235Z,76.50
2019-04-06T08:39:09.295Z,76.60
2019-04-06T08:41:38.752Z,76.50
2019-04-06T08:44:08.009Z,76.50
2019-04-06T08:46:37.271Z,76.40
2019-04-06T08:49:06.531Z,76.20
2019-04-06T08:51:35.739Z,76.00
2019-04-06T08:54:04.940Z,75.90
2019-04-06T08:56:34.261Z,75.60
2019-04-06T08:59:11.551Z,75.30
2019-04-06T09:01:34.452Z,75.10
2019-04-06T09:04:03.669Z,74.70
2019-04-06T09:06:32.895Z,74.50
2019-04-06T09:09:02.159Z,74.30
2019-04-06T09:11:31.379Z,74.10
2019-04-06T09:14:00.616Z,73.70
2019-04-06T09:16:29.830Z,73.50
2019-04-06T09:18:59.196Z,73.10
2019-04-06T09:21:28.708Z,72.90
2019-04-06T09:23:58.722Z,72.40
2019-04-06T09:26:27.891Z,72.10
2019-04-06T09:28:59.465Z,72.20
2019-04-06T09:31:28.119Z,71.80
2019-04-06T09:33:57.407Z,71.30
2019-04-06T09:36:26.874Z,71.00
2019-04-06T09:38:56.328Z,70.50
2019-04-06T09:41:26.334Z,70.00
2019-04-06T09:43:55.971Z,69.60
2019-04-06T09:46:35.898Z,69.40
2019-04-06T09:49:09.488Z,68.70
2019-04-06T09:51:43.020Z,68.50
2019-04-06T09:54:20.031Z,68.60
2019-04-06T09:56:56.658Z,68.70
2019-04-06T09:59:39.511Z,68.40
2019-04-06T10:02:10.532Z,68.30
2019-04-06T10:04:57.477Z,68.20
2019-04-06T10:07:40.078Z,67.80
2019-04-06T10:10:11.003Z,67.20
2019-04-06T10:12:47.690Z,66.50
2019-04-06T10:15:36.646Z,66.00
2019-04-06T10:18:07.477Z,65.70
2019-04-06T10:20:44.045Z,65.20
2019-04-06T10:23:32.993Z,65.00
2019-04-06T10:26:09.252Z,64.60
2019-04-06T10:28:43.050Z,64.40
2019-04-06T10:31:19.406Z,64.10
2019-04-06T10:33:56.368Z,63.80
2019-04-06T10:36:27.321Z,63.40
2019-04-06T10:39:00.635Z,62.90
2019-04-06T10:41:31.697Z,62.30
2019-04-06T10:44:02.867Z,62.70
2019-04-06T10:46:33.778Z,63.10
2019-04-06T10:49:07.977Z,63.10
2019-04-06T10:51:44.896Z,62.80
2019-04-06T10:54:18.715Z,62.20
2019-04-06T10:56:49.613Z,61.50
2019-04-06T10:59:20.537Z,60.80
2019-04-06T11:02:03.569Z,60.30
2019-04-06T11:04:40.109Z,59.90
2019-04-06T11:07:26.821Z,59.80
2019-04-06T11:10:15.596Z,59.60
2019-04-06T11:12:49.283Z,59.10
2019-04-06T11:15:32.233Z,58.80
2019-04-06T11:18:18.700Z,58.60
2019-04-06T11:21:04.689Z,58.70
2019-04-06T11:23:51.557Z,58.90
2019-04-06T11:26:23.016Z,59.00
2019-04-06T11:29:09.819Z,58.80
2019-04-06T11:31:43.059Z,58.40
2019-04-06T11:34:25.655Z,58.30
2019-04-06T11:36:59.178Z,57.80
2019-04-06T11:39:38.835Z,57.10
2019-04-06T11:42:09.709Z,56.60
2019-04-06T11:44:46.294Z,55.60
2019-04-06T11:47:33.346Z,55.10
2019-04-06T11:50:12.814Z,55.30
2019-04-06T11:52:46.452Z,55.10
2019-04-06T11:55:17.265Z,54.70
2019-04-06T11:57:54.062Z,54.00
2019-04-06T12:00:28.157Z,53.50
2019-04-06T12:02:59.331Z,53.10
2019-04-06T12:05:35.812Z,52.80
2019-04-06T12:08:06.963Z,52.70
2019-04-06T12:10:40.235Z,52.60
2019-04-06T12:13:13.831Z,52.70
2019-04-06T12:15:47.373Z,52.60
2019-04-06T12:18:20.958Z,52.40
2019-04-06T12:20:54.321Z,52.00
2019-04-06T12:23:33.870Z,51.80
2019-04-06T12:26:19.768Z,51.80
2019-04-06T12:28:53.254Z,51.40
2019-04-06T12:31:24.086Z,51.30
2019-04-06T12:33:58.010Z,50.80
2019-04-06T12:36:34.554Z,50.50
2019-04-06T12:39:16.223Z,50.50
2019-04-06T12:42:02.986Z,50.10
2019-04-06T12:44:33.825Z,50.10
2019-04-06T12:47:04.666Z,50.00
2019-04-06T12:49:44.822Z,49.70
2019-04-06T12:52:27.462Z,48.90
2019-04-06T12:54:58.624Z,49.20
2019-04-06T12:57:35.295Z,49.00
2019-04-06T13:00:20.268Z,48.70
2019-04-06T13:02:54.373Z,48.60
2019-04-06T13:05:41.220Z,48.50
2019-04-06T13:08:17.762Z,48.20
2019-04-06T13:10:55.949Z,48.30
2019-04-06T13:13:27.130Z,48.10
2019-04-06T13:15:58.317Z,47.40
2019-04-06T13:18:34.599Z,47.50
2019-04-06T13:21:05.581Z,47.40
2019-04-06T13:23:41.973Z,46.90
2019-04-06T13:26:15.469Z,46.60
2019-04-06T13:28:49.349Z,46.50
2019-04-06T13:31:20.159Z,46.10
2019-04-06T13:33:51.125Z,45.70
2019-04-06T13:36:22.067Z,45.40
2019-04-06T13:38:53.293Z,44.70
2019-04-06T13:41:40.210Z,44.40
2019-04-06T13:44:13.844Z,44.20
2019-04-06T13:46:59.929Z,44.30
2019-04-06T13:49:36.832Z,44.20
2019-04-06T13:52:23.924Z,44.00
2019-04-06T13:55:10.998Z,43.70
2019-04-06T13:57:45.098Z,43.40
2019-04-06T14:00:16.195Z,43.30
2019-04-06T14:02:47.167Z,42.90
2019-04-06T14:05:34.319Z,42.50
2019-04-06T14:08:21.798Z,42.30
2019-04-06T14:11:08.689Z,42.10
2019-04-06T14:13:48.113Z,41.80
2019-04-06T14:16:31.012Z,42.00
2019-04-06T14:19:10.502Z,41.50
2019-04-06T14:21:56.473Z,40.90
2019-04-06T14:24:33.359Z,41.00
2019-04-06T14:27:07.518Z,40.90
2019-04-06T14:29:38.364Z,40.70
2019-04-06T14:32:27.233Z,40.50
2019-04-06T14:35:14.198Z,40.30
2019-04-06T14:37:51.087Z,40.40
2019-04-06T14:40:24.847Z,40.20
2019-04-06T14:43:11.824Z,39.90
2019-04-06T14:46:01.022Z,39.80
2019-04-06T14:48:48.014Z,39.80
2019-04-06T14:51:24.872Z,39.20
2019-04-06T14:53:58.860Z,39.10
2019-04-06T14:56:29.942Z,38.70
2019-04-06T14:59:00.805Z,38.60
2019-04-06T15:01:45.312Z,38.00
2019-04-06T15:04:16.623Z,37.50
2019-04-06T15:06:47.671Z,37.40
2019-04-06T15:09:30.443Z,37.10
2019-04-06T15:12:01.296Z,36.70
2019-04-06T15:14:34.918Z,36.80
2019-04-06T15:17:18.008Z,36.80
2019-04-06T15:19:49.175Z,36.40
2019-04-06T15:22:22.654Z,36.20
2019-04-06T15:25:11.317Z,36.00
2019-04-06T15:27:58.391Z,35.50
2019-04-06T15:30:44.655Z,35.20
2019-04-06T15:33:15.566Z,34.70
2019-04-06T15:35:46.509Z,34.20
2019-04-06T15:38:20.286Z,33.70
2019-04-06T15:40:57.262Z,33.70
2019-04-06T15:43:32.818Z,33.70
2019-04-06T15:46:15.433Z,33.30
2019-04-06T15:48:52.228Z,33.10
2019-04-06T15:51:35.375Z,33.00
2019-04-06T15:54:22.220Z,32.80
2019-04-06T15:56:53.861Z,32.80
2019-04-06T15:59:27.676Z,32.70
2019-04-06T16:02:07.265Z,32.70
2019-04-06T16:04:38.104Z,32.80
2019-04-06T16:07:31.459Z,32.70
2019-04-06T16:10:11.431Z,33.60
2019-04-06T16:12:47.907Z,34.80
2019-04-06T16:15:21.763Z,35.90
2019-04-06T16:17:55.316Z,36.70
2019-04-06T16:20:41.125Z,37.20
2019-04-06T16:23:20.673Z,37.40
2019-04-06T16:25:54.274Z,37.70
2019-04-06T16:28:25.309Z,37.90
2019-04-06T16:31:08.090Z,38.10
2019-04-06T16:33:41.741Z,38.50
2019-04-06T16:36:15.435Z,38.90
2019-04-06T16:38:52.460Z,39.50
2019-04-06T16:41:32.455Z,40.10
2019-04-06T16:44:03.436Z,40.60
2019-04-06T16:46:34.262Z,41.00
2019-04-06T16:49:21.267Z,41.60
2019-04-06T16:52:08.744Z,41.90
2019-04-06T16:54:40.064Z,42.30
2019-04-06T16:57:13.371Z,42.60
2019-04-06T17:00:00.356Z,43.00
2019-04-06T17:02:31.691Z,43.40
2019-04-06T17:05:02.510Z,43.70
2019-04-06T17:07:39.063Z,44.10
2019-04-06T17:10:15.922Z,44.40
2019-04-06T17:12:46.812Z,44.60
2019-04-06T17:15:17.768Z,44.90
2019-04-06T17:17:51.291Z,45.30
2019-04-06T17:20:30.784Z,45.60
2019-04-06T17:23:14.252Z,45.70
2019-04-06T17:25:45.082Z,46.00
2019-04-06T17:28:18.700Z,46.40
2019-04-06T17:31:05.092Z,46.80
2019-04-06T17:33:47.489Z,47.30
2019-04-06T17:36:21.303Z,47.60
2019-04-06T17:38:52.247Z,48.10
2019-04-06T17:41:26.043Z,48.40
2019-04-06T17:44:02.776Z,48.80
2019-04-06T17:46:49.361Z,49.20
2019-04-06T17:49:32.587Z,49.40
2019-04-06T17:52:06.325Z,49.70
2019-04-06T17:54:40.122Z,50.00
2019-04-06T17:57:25.497Z,50.40
2019-04-06T18:00:12.425Z,50.70
2019-04-06T18:02:50.920Z,50.90
2019-04-06T18:05:21.896Z,51.20
2019-04-06T18:08:04.922Z,51.60
2019-04-06T18:10:48.066Z,51.90
2019-04-06T18:13:28.517Z,52.10
2019-04-06T18:15:57.883Z,52.40
2019-04-06T18:18:27.012Z,52.60
2019-04-06T18:20:57.230Z,53.00
2019-04-06T18:23:26.411Z,53.30
2019-04-06T18:25:55.651Z,53.60
2019-04-06T18:28:25.301Z,53.90
2019-04-06T18:30:59.296Z,54.20
2019-04-06T18:33:30.028Z,54.30
2019-04-06T18:35:59.533Z,54.80
2019-04-06T18:38:33.227Z,55.00
2019-04-06T18:41:02.396Z,55.30
2019-04-06T18:43:31.694Z,55.50
2019-04-06T18:46:01.223Z,55.90
2019-04-06T18:48:30.546Z,56.20
2019-04-06T18:50:59.802Z,56.30
2019-04-06T18:53:29.007Z,56.60
2019-04-06T18:55:58.503Z,57.00
2019-04-06T18:58:27.828Z,57.20
2019-04-06T19:00:58.850Z,57.50
2019-04-06T19:03:28.153Z,57.70
2019-04-06T19:05:57.961Z,58.00
2019-04-06T19:08:27.342Z,58.30
2019-04-06T19:10:56.771Z,58.30
2019-04-06T19:13:26.093Z,58.60
2019-04-06T19:15:55.825Z,58.80
2019-04-06T19:18:25.086Z,59.10
2019-04-06T19:20:54.941Z,59.30
2019-04-06T19:23:24.464Z,59.50
2019-04-06T19:25:53.835Z,59.60
2019-04-06T19:28:23.192Z,59.90
2019-04-06T19:30:52.489Z,60.20
2019-04-06T19:33:24.983Z,60.50
2019-04-06T19:35:58.796Z,60.70
2019-04-06T19:38:28.245Z,61.00
2019-04-06T19:40:57.648Z,61.10
2019-04-06T19:43:28.750Z,61.40
2019-04-06T19:45:58.113Z,61.60
2019-04-06T19:48:27.302Z,61.90
2019-04-06T19:51:00.087Z,62.20
2019-04-06T19:53:31.770Z,62.50
2019-04-06T19:56:02.127Z,62.60
2019-04-06T19:58:31.409Z,62.90
2019-04-06T20:01:04.308Z,63.00
2019-04-06T20:03:37.131Z,63.20
2019-04-06T20:06:04.968Z,63.40
2019-04-06T20:08:35.009Z,63.60
2019-04-06T20:11:07.084Z,63.80
2019-04-06T20:13:36.606Z,63.90
2019-04-06T20:16:08.713Z,64.10
2019-04-06T20:18:40.060Z,64.40
2019-04-06T20:21:09.777Z,64.60
2019-04-06T20:23:39.122Z,64.70
2019-04-06T20:26:12.793Z,65.50
2019-04-06T20:28:44.750Z,64.90
2019-04-06T20:31:14.176Z,64.90
2019-04-06T20:33:51.492Z,65.00
2019-04-06T20:36:17.586Z,65.10
2019-04-06T20:38:48.580Z,65.00
2019-04-06T20:41:17.971Z,65.10
2019-04-06T20:43:47.534Z,65.10
2019-04-06T20:46:19.676Z,65.30
2019-04-06T20:48:48.104Z,65.40
2019-04-06T20:51:17.991Z,65.40
2019-04-06T20:53:47.414Z,65.50
2019-04-06T20:56:17.173Z,65.50
2019-04-06T20:58:46.561Z,65.60
2019-04-06T21:01:15.953Z,65.60
2019-04-06T21:03:45.401Z,65.60
2019-04-06T21:06:14.683Z,65.80
2019-04-06T21:08:44.067Z,65.90
2019-04-06T21:11:13.286Z,66.70
2019-04-06T21:13:42.649Z,66.20
2019-04-06T21:16:12.420Z,66.30
2019-04-06T21:18:41.888Z,66.40
2019-04-06T21:21:11.178Z,66.30
2019-04-06T21:23:40.400Z,66.50
2019-04-06T21:26:09.641Z,66.60
2019-04-06T21:28:39.016Z,66.70
2019-04-06T21:31:08.710Z,66.80
2019-04-06T21:33:38.536Z,67.00
2019-04-06T21:36:08.386Z,67.00
2019-04-06T21:38:37.724Z,66.90
2019-04-06T21:41:07.036Z,67.10
2019-04-06T21:43:36.222Z,67.20
2019-04-06T21:46:05.610Z,67.30
2019-04-06T21:48:35.219Z,67.50
2019-04-06T21:51:04.523Z,68.20
2019-04-06T21:53:34.570Z,67.60
2019-04-06T21:56:07.391Z,67.80
2019-04-06T21:58:34.882Z,67.70
2019-04-06T22:01:04.113Z,67.90
2019-04-06T22:03:33.784Z,68.00
2019-04-06T22:06:03.612Z,68.10
2019-04-06T22:08:32.872Z,68.10
2019-04-06T22:11:02.620Z,68.20
2019-04-06T22:13:31.968Z,68.50
2019-04-06T22:16:01.169Z,68.50
2019-04-06T22:18:30.572Z,68.70
2019-04-06T22:20:59.742Z,68.90
2019-04-06T22:23:39.777Z,69.00
2019-04-06T22:26:00.455Z,69.10
2019-04-06T22:28:29.979Z,69.30
2019-04-06T22:30:59.168Z,69.30
2019-04-06T22:33:28.635Z,69.50
2019-04-06T22:35:58.488Z,69.50
2019-04-06T22:38:28.173Z,69.70
2019-04-06T22:40:57.834Z,69.60
2019-04-06T22:43:27.107Z,69.60
2019-04-06T22:45:56.438Z,69.60
2019-04-06T22:48:25.699Z,69.70
2019-04-06T22:50:55.144Z,69.80
2019-04-06T22:53:24.829Z,69.90
2019-04-06T22:55:54.075Z,70.10
2019-04-06T22:58:23.261Z,70.10
2019-04-06T23:01:00.076Z,70.30
2019-04-06T23:03:30.904Z,70.50
2019-04-06T23:06:14.204Z,70.70
2019-04-06T23:08:43.833Z,71.00
2019-04-06T23:11:13.166Z,71.10
2019-04-06T23:13:42.505Z,71.20
2019-04-06T23:16:11.709Z,71.40
2019-04-06T23:18:41.299Z,71.70
2019-04-06T23:21:10.893Z,71.90
2019-04-06T23:23:40.717Z,71.90
2019-04-06T23:26:10.106Z,71.90
2019-04-06T23:28:39.349Z,71.80
2019-04-06T23:31:08.615Z,71.90
2019-04-06T23:33:38.072Z,71.90
2019-04-06T23:36:07.812Z,71.90
2019-04-06T23:38:37.806Z,72.00
2019-04-06T23:41:07.145Z,72.10
2019-04-06T23:43:36.958Z,72.10
2019-04-06T23:46:06.402Z,72.20
2019-04-06T23:48:36.368Z,72.30
2019-04-06T23:51:06.294Z,72.30
2019-04-06T23:53:35.984Z,72.40
2019-04-06T23:56:05.334Z,72.50
2019-04-06T23:58:35.218Z,72.50
